^^
Station Historical Data
Daily Summary for September 17, 2017 Units:  Both    English   Metric
« Previous Day
Next Day »
Daily Weekly Monthly Yearly Custom
  High: Low: Average:
Temperature: TemperatureF °F /  -17.8 °C 57.9 °F /  14.4 °C 73.9 °F /  23.3 °C
Dew Point: DewpointF °F /  -17.8 °C 8.1 °F /  -13.3 °C 26.2 °F /  -3.2 °C
Humidity: Humidity% 7% 21%
Wind Speed: WindSpeedMPHmph /  0km/h - 1.5mph /  2.4km/h
Wind Gust: WindSpeedGustMPHmph /  0km/h - -
Wind- - SW
Pressure: PressureIn in /  0 hPa 29.73 in /  1006.7 hPa -
Precipitation: 0.00 in /  0 mm    
Historical Graphs
 
 
Tabular Data for September 17, 2017
Time Temperature Dew Point Pressure Wind Wind Speed Wind Gust Humidity Rainfall Rate (Hourly) solar Conditions
TemperatureF °F /  -17.8 °C DewpointF °F /  -17.8 °C PressureInin /  0hPa Calm     Humidity% HourlyPrecipInin /  0mm SolarRadiationWatts/m^2 W/m2 Conditions
00:02 65.8 °F /  18.8 °C 36.7 °F /  2.6 °C 29.83in /  1010hPa Calm   2.0mph /  3.2km/h 34% 0.00in /  0mm 0.0 W/m2
00:08 65.5 °F /  18.6 °C 36.3 °F /  2.4 °C 29.83in /  1010hPa SSE 0.9mph /  1.4km/h 2.0mph /  3.2km/h 34% 0.00in /  0mm 0.0 W/m2
00:14 65.1 °F /  18.4 °C 36.1 °F /  2.3 °C 29.84in /  1010.4hPa Calm   2.0mph /  3.2km/h 34% 0.00in /  0mm 0.0 W/m2
00:20 65.1 °F /  18.4 °C 36.9 °F /  2.7 °C 29.84in /  1010.4hPa SSE 0.9mph /  1.4km/h 2.0mph /  3.2km/h 35% 0.00in /  0mm 0.0 W/m2
00:26 64.9 °F /  18.3 °C 36.7 °F /  2.6 °C 29.84in /  1010.4hPa SE 0.9mph /  1.4km/h 1.0mph /  1.6km/h 35% 0.00in /  0mm 0.0 W/m2
00:32 65.1 °F /  18.4 °C 36.9 °F /  2.7 °C 29.84in /  1010.4hPa Calm   2.0mph /  3.2km/h 35% 0.00in /  0mm 0.0 W/m2
00:39 65.1 °F /  18.4 °C 36.1 °F /  2.3 °C 29.84in /  1010.4hPa Calm     34% 0.00in /  0mm 0.0 W/m2
00:45 64.8 °F /  18.2 °C 35.8 °F /  2.1 °C 29.84in /  1010.4hPa Calm     34% 0.00in /  0mm 0.0 W/m2
00:51 64.2 °F /  17.9 °C 36.0 °F /  2.2 °C 29.83in /  1010hPa Calm   1.0mph /  1.6km/h 35% 0.00in /  0mm 0.0 W/m2
00:57 63.7 °F /  17.6 °C 35.6 °F /  2 °C 29.83in /  1010hPa Calm     35% 0.00in /  0mm 0.0 W/m2
01:03 63.0 °F /  17.2 °C 35.6 °F /  2 °C 29.83in /  1010hPa Calm     36% 0.00in /  0mm 0.0 W/m2
01:09 62.2 °F /  16.8 °C 35.6 °F /  2 °C 29.83in /  1010hPa Calm     37% 0.00in /  0mm 0.0 W/m2
01:15 61.9 °F /  16.6 °C 35.2 °F /  1.8 °C 29.83in /  1010hPa Calm     37% 0.00in /  0mm 0.0 W/m2
01:21 61.5 °F /  16.4 °C 35.6 °F /  2 °C 29.83in /  1010hPa Calm     38% 0.00in /  0mm 0.0 W/m2
01:28 61.3 °F /  16.3 °C 35.6 °F /  2 °C 29.83in /  1010hPa Calm     38% 0.00in /  0mm 0.0 W/m2
01:34 61.2 °F /  16.2 °C 36.0 °F /  2.2 °C 29.83in /  1010hPa Calm     39% 0.00in /  0mm 0.0 W/m2
01:40 61.2 °F /  16.2 °C 36.0 °F /  2.2 °C 29.83in /  1010hPa Calm   1.0mph /  1.6km/h 39% 0.00in /  0mm 0.0 W/m2
01:46 61.2 °F /  16.2 °C 36.0 °F /  2.2 °C 29.83in /  1010hPa Calm   1.0mph /  1.6km/h 39% 0.00in /  0mm 0.0 W/m2
01:52 61.3 °F /  16.3 °C 36.1 °F /  2.3 °C 29.83in /  1010hPa Calm   3.0mph /  4.8km/h 39% 0.00in /  0mm 0.0 W/m2
01:58 61.5 °F /  16.4 °C 35.6 °F /  2 °C 29.83in /  1010hPa East 0.9mph /  1.4km/h 3.0mph /  4.8km/h 38% 0.00in /  0mm 0.0 W/m2
02:04 61.9 °F /  16.6 °C 36.0 °F /  2.2 °C 29.83in /  1010hPa NE 0.9mph /  1.4km/h 3.0mph /  4.8km/h 38% 0.00in /  0mm 0.0 W/m2
02:11 62.1 °F /  16.7 °C 35.4 °F /  1.9 °C 29.83in /  1010hPa Calm   6.0mph /  9.7km/h 37% 0.00in /  0mm 0.0 W/m2
02:17 62.4 °F /  16.9 °C 35.8 °F /  2.1 °C 29.83in /  1010hPa East 2.9mph /  4.7km/h 4.0mph /  6.4km/h 37% 0.00in /  0mm 0.0 W/m2
02:23 62.6 °F /  17 °C 36.0 °F /  2.2 °C 29.82in /  1009.7hPa NE 2.9mph /  4.7km/h 5.0mph /  8km/h 37% 0.00in /  0mm 0.0 W/m2
02:29 63.0 °F /  17.2 °C 35.6 °F /  2 °C 29.82in /  1009.7hPa East 2.0mph /  3.2km/h 3.0mph /  4.8km/h 36% 0.00in /  0mm 0.0 W/m2
02:35 63.1 °F /  17.3 °C 35.8 °F /  2.1 °C 29.82in /  1009.7hPa NE 2.9mph /  4.7km/h 4.0mph /  6.4km/h 36% 0.00in /  0mm 0.0 W/m2
02:41 63.1 °F /  17.3 °C 35.8 °F /  2.1 °C 29.81in /  1009.4hPa Calm   1.0mph /  1.6km/h 36% 0.00in /  0mm 0.0 W/m2
02:47 63.1 °F /  17.3 °C 35.8 °F /  2.1 °C 29.81in /  1009.4hPa Calm   4.0mph /  6.4km/h 36% 0.00in /  0mm 0.0 W/m2
02:53 63.0 °F /  17.2 °C 36.3 °F /  2.4 °C 29.82in /  1009.7hPa Calm   3.0mph /  4.8km/h 37% 0.00in /  0mm 0.0 W/m2
03:00 62.6 °F /  17 °C 36.0 °F /  2.2 °C 29.82in /  1009.7hPa Calm   1.0mph /  1.6km/h 37% 0.00in /  0mm 0.0 W/m2
03:06 62.4 °F /  16.9 °C 35.8 °F /  2.1 °C 29.82in /  1009.7hPa Calm   2.0mph /  3.2km/h 37% 0.00in /  0mm 0.0 W/m2
03:12 62.4 °F /  16.9 °C 35.8 °F /  2.1 °C 29.82in /  1009.7hPa Calm   1.0mph /  1.6km/h 37% 0.00in /  0mm 0.0 W/m2
03:18 62.2 °F /  16.8 °C 35.6 °F /  2 °C 29.81in /  1009.4hPa East 2.0mph /  3.2km/h 2.0mph /  3.2km/h 37% 0.00in /  0mm 0.0 W/m2
03:24 62.1 °F /  16.7 °C 36.1 °F /  2.3 °C 29.81in /  1009.4hPa Calm   3.0mph /  4.8km/h 38% 0.00in /  0mm 0.0 W/m2
03:30 61.9 °F /  16.6 °C 36.0 °F /  2.2 °C 29.80in /  1009hPa Calm   4.0mph /  6.4km/h 38% 0.00in /  0mm 0.0 W/m2
03:36 61.9 °F /  16.6 °C 36.0 °F /  2.2 °C 29.80in /  1009hPa Calm   3.0mph /  4.8km/h 38% 0.00in /  0mm 0.0 W/m2
03:42 61.9 °F /  16.6 °C 36.0 °F /  2.2 °C 29.80in /  1009hPa Calm   1.0mph /  1.6km/h 38% 0.00in /  0mm 0.0 W/m2
03:49 61.7 °F /  16.5 °C 35.8 °F /  2.1 °C 29.80in /  1009hPa Calm   1.0mph /  1.6km/h 38% 0.00in /  0mm 0.0 W/m2
03:55 61.7 °F /  16.5 °C 35.8 °F /  2.1 °C 29.80in /  1009hPa Calm   2.0mph /  3.2km/h 38% 0.00in /  0mm 0.0 W/m2
04:01 61.5 °F /  16.4 °C 35.6 °F /  2 °C 29.80in /  1009hPa ENE 0.9mph /  1.4km/h 3.0mph /  4.8km/h 38% 0.00in /  0mm 0.0 W/m2
04:07 61.7 °F /  16.5 °C 35.8 °F /  2.1 °C 29.80in /  1009hPa Calm   3.0mph /  4.8km/h 38% 0.00in /  0mm 0.0 W/m2
04:13 61.7 °F /  16.5 °C 35.8 °F /  2.1 °C 29.81in /  1009.4hPa Calm   1.0mph /  1.6km/h 38% 0.00in /  0mm 0.0 W/m2
04:19 61.9 °F /  16.6 °C 36.0 °F /  2.2 °C 29.81in /  1009.4hPa NE 0.9mph /  1.4km/h 2.0mph /  3.2km/h 38% 0.00in /  0mm 0.0 W/m2
04:25 61.9 °F /  16.6 °C 36.0 °F /  2.2 °C 29.81in /  1009.4hPa Calm   2.0mph /  3.2km/h 38% 0.00in /  0mm 0.0 W/m2
04:31 61.9 °F /  16.6 °C 35.2 °F /  1.8 °C 29.81in /  1009.4hPa Calm   5.0mph /  8km/h 37% 0.00in /  0mm 0.0 W/m2
04:38 62.1 °F /  16.7 °C 35.4 °F /  1.9 °C 29.81in /  1009.4hPa NE 2.0mph /  3.2km/h 2.0mph /  3.2km/h 37% 0.00in /  0mm 0.0 W/m2
04:44 62.1 °F /  16.7 °C 35.4 °F /  1.9 °C 29.81in /  1009.4hPa Calm   2.0mph /  3.2km/h 37% 0.00in /  0mm 0.0 W/m2
04:50 62.1 °F /  16.7 °C 35.4 °F /  1.9 °C 29.81in /  1009.4hPa Calm   2.0mph /  3.2km/h 37% 0.00in /  0mm 0.0 W/m2
04:56 62.1 °F /  16.7 °C 35.4 °F /  1.9 °C 29.81in /  1009.4hPa Calm   1.0mph /  1.6km/h 37% 0.00in /  0mm 0.0 W/m2
05:02 62.1 °F /  16.7 °C 35.4 °F /  1.9 °C 29.82in /  1009.7hPa Calm     37% 0.00in /  0mm 0.0 W/m2
05:08 62.1 °F /  16.7 °C 35.4 °F /  1.9 °C 29.81in /  1009.4hPa Calm     37% 0.00in /  0mm 0.0 W/m2
05:16 61.9 °F /  16.6 °C 35.2 °F /  1.8 °C 29.81in /  1009.4hPa Calm     37% 0.00in /  0mm 0.0 W/m2
05:22 61.5 °F /  16.4 °C 35.6 °F /  2 °C 29.82in /  1009.7hPa Calm     38% 0.00in /  0mm 0.0 W/m2
05:29 61.2 °F /  16.2 °C 35.4 °F /  1.9 °C 29.82in /  1009.7hPa Calm     38% 0.00in /  0mm 0.0 W/m2
05:33 61.0 °F /  16.1 °C 35.2 °F /  1.8 °C 29.82in /  1009.7hPa Calm     38% 0.00in /  0mm 0.0 W/m2
05:39 60.4 °F /  15.8 °C 35.4 °F /  1.9 °C 29.82in /  1009.7hPa Calm     39% 0.00in /  0mm 0.0 W/m2
05:45 60.3 °F /  15.7 °C 35.2 °F /  1.8 °C 29.82in /  1009.7hPa Calm   3.0mph /  4.8km/h 39% 0.00in /  0mm 0.0 W/m2
05:49 60.1 °F /  15.6 °C 35.1 °F /  1.7 °C 29.82in /  1009.7hPa Calm   1.0mph /  1.6km/h 39% 0.00in /  0mm 0.0 W/m2
05:55 59.7 °F /  15.4 °C 35.4 °F /  1.9 °C 29.82in /  1009.7hPa Calm   2.0mph /  3.2km/h 40% 0.00in /  0mm 0.0 W/m2
06:01 59.7 °F /  15.4 °C 34.7 °F /  1.5 °C 29.82in /  1009.7hPa East 2.0mph /  3.2km/h 4.0mph /  6.4km/h 39% 0.00in /  0mm 0.0 W/m2
06:07 59.7 °F /  15.4 °C 34.7 °F /  1.5 °C 29.82in /  1009.7hPa ENE 0.9mph /  1.4km/h 3.0mph /  4.8km/h 39% 0.00in /  0mm 0.0 W/m2
06:14 59.7 °F /  15.4 °C 34.7 °F /  1.5 °C 29.82in /  1009.7hPa NE 4.0mph /  6.4km/h 4.0mph /  6.4km/h 39% 0.00in /  0mm 0.0 W/m2
06:20 59.7 °F /  15.4 °C 34.7 °F /  1.5 °C 29.82in /  1009.7hPa Calm   1.0mph /  1.6km/h 39% 0.00in /  0mm 0.0 W/m2
06:24 59.7 °F /  15.4 °C 34.7 °F /  1.5 °C 29.82in /  1009.7hPa Calm   1.0mph /  1.6km/h 39% 0.00in /  0mm 0.0 W/m2
06:30 59.5 °F /  15.3 °C 35.2 °F /  1.8 °C 29.82in /  1009.7hPa Calm   2.0mph /  3.2km/h 40% 0.00in /  0mm 0.0 W/m2
06:36 59.4 °F /  15.2 °C 35.1 °F /  1.7 °C 29.83in /  1010hPa Calm   2.0mph /  3.2km/h 40% 0.00in /  0mm 0.0 W/m2
06:42 59.4 °F /  15.2 °C 35.1 °F /  1.7 °C 29.83in /  1010hPa Calm     40% 0.00in /  0mm 0.0 W/m2
06:54 59.2 °F /  15.1 °C 35.4 °F /  1.9 °C 29.83in /  1010hPa Calm   1.0mph /  1.6km/h 41% 0.00in /  0mm 5.0 W/m2
07:01 59.2 °F /  15.1 °C 35.4 °F /  1.9 °C 29.83in /  1010hPa Calm     41% 0.00in /  0mm 9.0 W/m2
07:07 58.8 °F /  14.9 °C 35.2 °F /  1.8 °C 29.83in /  1010hPa Calm   1.0mph /  1.6km/h 41% 0.00in /  0mm 12.0 W/m2
07:13 58.5 °F /  14.7 °C 34.9 °F /  1.6 °C 29.83in /  1010hPa Calm     41% 0.00in /  0mm 16.0 W/m2
07:19 58.1 °F /  14.5 °C 35.1 °F /  1.7 °C 29.84in /  1010.4hPa Calm     42% 0.00in /  0mm 21.0 W/m2
07:31 57.9 °F /  14.4 °C 35.6 °F /  2 °C 29.84in /  1010.4hPa Calm   1.0mph /  1.6km/h 43% 0.00in /  0mm 32.0 W/m2
07:37 58.1 °F /  14.5 °C 35.8 °F /  2.1 °C 29.84in /  1010.4hPa Calm   1.0mph /  1.6km/h 43% 0.00in /  0mm 37.0 W/m2
07:44 58.3 °F /  14.6 °C 35.2 °F /  1.8 °C 29.85in /  1010.7hPa Calm     42% 0.00in /  0mm 44.0 W/m2
07:50 58.5 °F /  14.7 °C 36.0 °F /  2.2 °C 29.85in /  1010.7hPa Calm     43% 0.00in /  0mm 49.0 W/m2
07:56 58.5 °F /  14.7 °C 36.0 °F /  2.2 °C 29.85in /  1010.7hPa Calm     43% 0.00in /  0mm 56.0 W/m2
08:02 58.8 °F /  14.9 °C 35.8 °F /  2.1 °C 29.85in /  1010.7hPa Calm     42% 0.00in /  0mm 63.0 W/m2
08:08 59.4 °F /  15.2 °C 36.3 °F /  2.4 °C 29.85in /  1010.7hPa Calm     42% 0.00in /  0mm 69.0 W/m2
08:14 59.7 °F /  15.4 °C 36.0 °F /  2.2 °C 29.85in /  1010.7hPa Calm   2.0mph /  3.2km/h 41% 0.00in /  0mm 72.0 W/m2
08:21 60.4 °F /  15.8 °C 36.0 °F /  2.2 °C 29.85in /  1010.7hPa Calm   1.0mph /  1.6km/h 40% 0.00in /  0mm 77.0 W/m2
08:33 61.9 °F /  16.6 °C 36.0 °F /  2.2 °C 29.85in /  1010.7hPa Calm     38% 0.00in /  0mm 84.0 W/m2
08:39 62.6 °F /  17 °C 36.7 °F /  2.6 °C 29.86in /  1011.1hPa Calm     38% 0.00in /  0mm 90.0 W/m2
08:45 63.7 °F /  17.6 °C 36.1 °F /  2.3 °C 29.86in /  1011.1hPa Calm     36% 0.00in /  0mm 95.0 W/m2
08:51 64.6 °F /  18.1 °C 36.3 °F /  2.4 °C 29.86in /  1011.1hPa Calm     35% 0.00in /  0mm 102.0 W/m2
08:57 65.5 °F /  18.6 °C 35.6 °F /  2 °C 29.86in /  1011.1hPa Calm     33% 0.00in /  0mm 100.0 W/m2
09:04 66.4 °F /  19.1 °C 37.2 °F /  2.9 °C 29.86in /  1011.1hPa Calm     34% 0.00in /  0mm 104.0 W/m2
09:10 67.3 °F /  19.6 °C 36.5 °F /  2.5 °C 29.86in /  1011.1hPa Calm     32% 0.00in /  0mm 109.0 W/m2
09:16 68.2 °F /  20.1 °C 36.3 °F /  2.4 °C 29.86in /  1011.1hPa Calm   1.0mph /  1.6km/h 31% 0.00in /  0mm 113.0 W/m2
09:22 69.3 °F /  20.7 °C 36.5 °F /  2.5 °C 29.86in /  1011.1hPa Calm     30% 0.00in /  0mm 116.0 W/m2
09:28 70.2 °F /  21.2 °C 36.5 °F /  2.5 °C 29.86in /  1011.1hPa Calm     29% 0.00in /  0mm 120.0 W/m2
09:34 71.2 °F /  21.8 °C 36.5 °F /  2.5 °C 29.86in /  1011.1hPa Calm     28% 0.00in /  0mm 125.0 W/m2
09:40 72.3 °F /  22.4 °C 36.5 °F /  2.5 °C 29.85in /  1010.7hPa Calm   1.0mph /  1.6km/h 27% 0.00in /  0mm 485.0 W/m2
09:46 73.6 °F /  23.1 °C 36.5 °F /  2.5 °C 29.85in /  1010.7hPa Calm   2.0mph /  3.2km/h 26% 0.00in /  0mm 508.0 W/m2
09:52 74.8 °F /  23.8 °C 36.7 °F /  2.6 °C 29.85in /  1010.7hPa Calm   1.0mph /  1.6km/h 25% 0.00in /  0mm 520.0 W/m2
09:58 76.3 °F /  24.6 °C 34.7 °F /  1.5 °C 29.85in /  1010.7hPa NW 2.0mph /  3.2km/h 3.0mph /  4.8km/h 22% 0.00in /  0mm 541.0 W/m2
10:04 77.4 °F /  25.2 °C 31.8 °F /  -0.1 °C 29.85in /  1010.7hPa Calm   1.0mph /  1.6km/h 19% 0.00in /  0mm 559.0 W/m2
10:16 79.2 °F /  26.2 °C 32.0 °F /  0 °C 29.85in /  1010.7hPa Calm   4.0mph /  6.4km/h 18% 0.00in /  0mm 594.0 W/m2
10:22 79.9 °F /  26.6 °C 31.1 °F /  -0.5 °C 29.84in /  1010.4hPa Calm   4.0mph /  6.4km/h 17% 0.00in /  0mm 610.0 W/m2
10:28 80.4 °F /  26.9 °C 30.2 °F /  -1 °C 29.84in /  1010.4hPa NNE 2.9mph /  4.7km/h 4.0mph /  6.4km/h 16% 0.00in /  0mm 622.0 W/m2
10:34 81.1 °F /  27.3 °C 32.2 °F /  0.1 °C 29.84in /  1010.4hPa Calm   2.0mph /  3.2km/h 17% 0.00in /  0mm 645.0 W/m2
10:40 82.0 °F /  27.8 °C 28.2 °F /  -2.1 °C 29.84in /  1010.4hPa Calm   2.0mph /  3.2km/h 14% 0.00in /  0mm 654.0 W/m2
10:46 82.6 °F /  28.1 °C 24.8 °F /  -4 °C 29.84in /  1010.4hPa West 0.9mph /  1.4km/h 5.0mph /  8km/h 12% 0.00in /  0mm 666.0 W/m2
10:52 82.9 °F /  28.3 °C 25.2 °F /  -3.8 °C 29.84in /  1010.4hPa NW 2.0mph /  3.2km/h 4.0mph /  6.4km/h 12% 0.00in /  0mm 680.0 W/m2
10:58 83.1 °F /  28.4 °C 28.9 °F /  -1.7 °C 29.84in /  1010.4hPa West 2.0mph /  3.2km/h 4.0mph /  6.4km/h 14% 0.00in /  0mm 689.0 W/m2
11:04 83.5 °F /  28.6 °C 27.5 °F /  -2.5 °C 29.84in /  1010.4hPa NNW 2.0mph /  3.2km/h 5.0mph /  8km/h 13% 0.00in /  0mm 703.0 W/m2
11:10 84.0 °F /  28.9 °C 27.9 °F /  -2.3 °C 29.84in /  1010.4hPa Calm   1.0mph /  1.6km/h 13% 0.00in /  0mm 712.0 W/m2
11:16 84.7 °F /  29.3 °C 26.4 °F /  -3.1 °C 29.83in /  1010hPa Calm   3.0mph /  4.8km/h 12% 0.00in /  0mm 728.0 W/m2
11:22 84.9 °F /  29.4 °C 26.6 °F /  -3 °C 29.83in /  1010hPa Calm   3.0mph /  4.8km/h 12% 0.00in /  0mm 738.0 W/m2
11:28 85.5 °F /  29.7 °C 25.0 °F /  -3.9 °C 29.83in /  1010hPa WNW 2.9mph /  4.7km/h 5.0mph /  8km/h 11% 0.00in /  0mm 744.0 W/m2
11:34 85.8 °F /  29.9 °C 27.3 °F /  -2.6 °C 29.83in /  1010hPa NNW 0.9mph /  1.4km/h 8.0mph /  12.9km/h 12% 0.00in /  0mm 756.0 W/m2
11:40 86.2 °F /  30.1 °C 27.7 °F /  -2.4 °C 29.83in /  1010hPa NW 0.9mph /  1.4km/h 3.0mph /  4.8km/h 12% 0.00in /  0mm 763.0 W/m2
11:47 86.5 °F /  30.3 °C 27.9 °F /  -2.3 °C 29.83in /  1010hPa Calm   3.0mph /  4.8km/h 12% 0.00in /  0mm 773.0 W/m2
11:53 86.5 °F /  30.3 °C 25.9 °F /  -3.4 °C 29.82in /  1009.7hPa North 4.0mph /  6.4km/h 5.0mph /  8km/h 11% 0.00in /  0mm 780.0 W/m2
11:59 87.3 °F /  30.7 °C 26.4 °F /  -3.1 °C 29.82in /  1009.7hPa West 0.9mph /  1.4km/h 3.0mph /  4.8km/h 11% 0.00in /  0mm 789.0 W/m2
12:05 87.4 °F /  30.8 °C 26.4 °F /  -3.1 °C 29.82in /  1009.7hPa Calm   4.0mph /  6.4km/h 11% 0.00in /  0mm 795.0 W/m2
12:11 87.4 °F /  30.8 °C 26.4 °F /  -3.1 °C 29.81in /  1009.4hPa NNW 0.9mph /  1.4km/h 7.0mph /  11.3km/h 11% 0.00in /  0mm 802.0 W/m2
12:17 88.0 °F /  31.1 °C 27.0 °F /  -2.8 °C 29.81in /  1009.4hPa Calm   6.0mph /  9.7km/h 11% 0.00in /  0mm 802.0 W/m2
12:23 88.5 °F /  31.4 °C 27.3 °F /  -2.6 °C 29.80in /  1009hPa NNW 2.9mph /  4.7km/h 8.0mph /  12.9km/h 11% 0.00in /  0mm 803.0 W/m2
12:29 89.1 °F /  31.7 °C 27.7 °F /  -2.4 °C 29.80in /  1009hPa Calm   3.0mph /  4.8km/h 11% 0.00in /  0mm 805.0 W/m2
12:35 89.2 °F /  31.8 °C 25.5 °F /  -3.6 °C 29.80in /  1009hPa Calm   1.0mph /  1.6km/h 10% 0.00in /  0mm 810.0 W/m2
12:41 89.4 °F /  31.9 °C 28.0 °F /  -2.2 °C 29.79in /  1008.7hPa SW 2.9mph /  4.7km/h 3.0mph /  4.8km/h 11% 0.00in /  0mm 812.0 W/m2
12:47 89.8 °F /  32.1 °C 28.2 °F /  -2.1 °C 29.79in /  1008.7hPa North 4.9mph /  7.9km/h 5.0mph /  8km/h 11% 0.00in /  0mm 814.0 W/m2
12:53 90.1 °F /  32.3 °C 26.2 °F /  -3.2 °C 29.78in /  1008.4hPa NW 4.0mph /  6.4km/h 8.0mph /  12.9km/h 10% 0.00in /  0mm 812.0 W/m2
12:59 90.3 °F /  32.4 °C 23.9 °F /  -4.5 °C 29.78in /  1008.4hPa WSW 2.0mph /  3.2km/h 2.0mph /  3.2km/h 9% 0.00in /  0mm 812.0 W/m2
13:05 90.7 °F /  32.6 °C 24.1 °F /  -4.4 °C 29.78in /  1008.4hPa NW 2.0mph /  3.2km/h 6.0mph /  9.7km/h 9% 0.00in /  0mm 816.0 W/m2
13:11 90.7 °F /  32.6 °C 24.1 °F /  -4.4 °C 29.78in /  1008.4hPa NNW 0.9mph /  1.4km/h 8.0mph /  12.9km/h 9% 0.00in /  0mm 807.0 W/m2
13:17 90.7 °F /  32.6 °C 24.1 °F /  -4.4 °C 29.77in /  1008hPa Calm   7.0mph /  11.3km/h 9% 0.00in /  0mm 805.0 W/m2
13:29 90.7 °F /  32.6 °C 24.1 °F /  -4.4 °C 29.77in /  1008hPa WNW 4.0mph /  6.4km/h 12.0mph /  19.3km/h 9% 0.00in /  0mm 802.0 W/m2
13:35 90.3 °F /  32.4 °C 23.9 °F /  -4.5 °C 29.77in /  1008hPa West 6.9mph /  11.1km/h 13.0mph /  20.9km/h 9% 0.00in /  0mm 788.0 W/m2
13:41 89.8 °F /  32.1 °C 23.4 °F /  -4.8 °C 29.76in /  1007.7hPa WNW 2.0mph /  3.2km/h 8.0mph /  12.9km/h 9% 0.00in /  0mm 788.0 W/m2
13:47 90.0 °F /  32.2 °C 23.5 °F /  -4.7 °C 29.76in /  1007.7hPa West 11.0mph /  17.7km/h 12.0mph /  19.3km/h 9% 0.00in /  0mm 765.0 W/m2
13:53 90.1 °F /  32.3 °C 23.7 °F /  -4.6 °C 29.76in /  1007.7hPa West 8.1mph /  13km/h 9.0mph /  14.5km/h 9% 0.00in /  0mm 773.0 W/m2
13:59 90.1 °F /  32.3 °C 23.7 °F /  -4.6 °C 29.76in /  1007.7hPa SW 2.9mph /  4.7km/h 11.0mph /  17.7km/h 9% 0.00in /  0mm 747.0 W/m2
14:11 90.3 °F /  32.4 °C 23.9 °F /  -4.5 °C 29.75in /  1007.3hPa West 4.9mph /  7.9km/h 6.0mph /  9.7km/h 9% 0.00in /  0mm 726.0 W/m2
14:17 90.5 °F /  32.5 °C 23.9 °F /  -4.5 °C 29.75in /  1007.3hPa SW 6.0mph /  9.7km/h 13.0mph /  20.9km/h 9% 0.00in /  0mm 712.0 W/m2
14:23 90.1 °F /  32.3 °C 23.7 °F /  -4.6 °C 29.75in /  1007.3hPa West 4.0mph /  6.4km/h 8.0mph /  12.9km/h 9% 0.00in /  0mm 719.0 W/m2
14:29 90.1 °F /  32.3 °C 23.7 °F /  -4.6 °C 29.75in /  1007.3hPa SSW 6.0mph /  9.7km/h 11.0mph /  17.7km/h 9% 0.00in /  0mm 687.0 W/m2
14:35 90.3 °F /  32.4 °C 23.9 °F /  -4.5 °C 29.74in /  1007hPa SW 4.0mph /  6.4km/h 8.0mph /  12.9km/h 9% 0.00in /  0mm 696.0 W/m2
14:41 90.7 °F /  32.6 °C 24.1 °F /  -4.4 °C 29.74in /  1007hPa WNW 8.9mph /  14.3km/h 9.0mph /  14.5km/h 9% 0.00in /  0mm 680.0 W/m2
14:47 90.9 °F /  32.7 °C 24.3 °F /  -4.3 °C 29.74in /  1007hPa WSW 4.0mph /  6.4km/h 13.0mph /  20.9km/h 9% 0.00in /  0mm 670.0 W/m2
14:53 90.3 °F /  32.4 °C 23.9 °F /  -4.5 °C 29.74in /  1007hPa West 2.0mph /  3.2km/h 10.0mph /  16.1km/h 9% 0.00in /  0mm 664.0 W/m2
14:59 90.5 °F /  32.5 °C 21.2 °F /  -6 °C 29.74in /  1007hPa NW 4.9mph /  7.9km/h 11.0mph /  17.7km/h 8% 0.00in /  0mm 645.0 W/m2
15:05 90.7 °F /  32.6 °C 21.4 °F /  -5.9 °C 29.73in /  1006.7hPa WSW 4.0mph /  6.4km/h 5.0mph /  8km/h 8% 0.00in /  0mm 628.0 W/m2
15:11 90.7 °F /  32.6 °C 21.4 °F /  -5.9 °C 29.74in /  1007hPa WSW 4.9mph /  7.9km/h 12.0mph /  19.3km/h 8% 0.00in /  0mm 606.0 W/m2
15:17 90.5 °F /  32.5 °C 23.9 °F /  -4.5 °C 29.73in /  1006.7hPa SE 4.9mph /  7.9km/h 8.0mph /  12.9km/h 9% 0.00in /  0mm 596.0 W/m2
15:23 90.3 °F /  32.4 °C 23.9 °F /  -4.5 °C 29.73in /  1006.7hPa SW 4.9mph /  7.9km/h 12.0mph /  19.3km/h 9% 0.00in /  0mm 582.0 W/m2
15:29 90.3 °F /  32.4 °C 23.9 °F /  -4.5 °C 29.74in /  1007hPa SW 6.0mph /  9.7km/h 13.0mph /  20.9km/h 9% 0.00in /  0mm 571.0 W/m2
15:35 90.1 °F /  32.3 °C 23.7 °F /  -4.6 °C 29.73in /  1006.7hPa South 2.9mph /  4.7km/h 8.0mph /  12.9km/h 9% 0.00in /  0mm 550.0 W/m2
15:41 90.3 °F /  32.4 °C 23.9 °F /  -4.5 °C 29.73in /  1006.7hPa SSW 6.9mph /  11.1km/h 8.0mph /  12.9km/h 9% 0.00in /  0mm 536.0 W/m2
15:47 90.7 °F /  32.6 °C 21.4 °F /  -5.9 °C 29.73in /  1006.7hPa WSW 8.9mph /  14.3km/h 13.0mph /  20.9km/h 8% 0.00in /  0mm 508.0 W/m2
15:53 90.9 °F /  32.7 °C 21.4 °F /  -5.9 °C 29.73in /  1006.7hPa WSW 4.9mph /  7.9km/h 11.0mph /  17.7km/h 8% 0.00in /  0mm 494.0 W/m2
15:59 90.7 °F /  32.6 °C 21.4 °F /  -5.9 °C 29.73in /  1006.7hPa SW 8.1mph /  13km/h 8.1mph /  13km/h 8% 0.00in /  0mm 476.0 W/m2
16:05 90.7 °F /  32.6 °C 21.4 °F /  -5.9 °C 29.73in /  1006.7hPa WSW 2.9mph /  4.7km/h 9.0mph /  14.5km/h 8% 0.00in /  0mm 461.0 W/m2
16:11 90.3 °F /  32.4 °C 21.0 °F /  -6.1 °C 29.73in /  1006.7hPa SSW 2.0mph /  3.2km/h 9.0mph /  14.5km/h 8% 0.00in /  0mm 438.0 W/m2
16:17 90.1 °F /  32.3 °C 20.8 °F /  -6.2 °C 29.73in /  1006.7hPa WSW 8.9mph /  14.3km/h 13.0mph /  20.9km/h 8% 0.00in /  0mm 418.0 W/m2
16:23 90.0 °F /  32.2 °C 20.8 °F /  -6.2 °C 29.73in /  1006.7hPa SE 2.0mph /  3.2km/h 7.0mph /  11.3km/h 8% 0.00in /  0mm 404.0 W/m2
16:29 89.8 °F /  32.1 °C 20.7 °F /  -6.3 °C 29.73in /  1006.7hPa NNW 0.9mph /  1.4km/h 6.0mph /  9.7km/h 8% 0.00in /  0mm 380.0 W/m2
16:35 90.3 °F /  32.4 °C 21.0 °F /  -6.1 °C 29.73in /  1006.7hPa WSW 8.1mph /  13km/h 8.1mph /  13km/h 8% 0.00in /  0mm 360.0 W/m2
16:41 90.1 °F /  32.3 °C 20.8 °F /  -6.2 °C 29.73in /  1006.7hPa WSW 4.0mph /  6.4km/h 11.0mph /  17.7km/h 8% 0.00in /  0mm 343.0 W/m2
16:47 90.0 °F /  32.2 °C 20.8 °F /  -6.2 °C 29.73in /  1006.7hPa West 6.0mph /  9.7km/h 9.0mph /  14.5km/h 8% 0.00in /  0mm 325.0 W/m2
16:53 90.0 °F /  32.2 °C 23.5 °F /  -4.7 °C 29.73in /  1006.7hPa SSW 2.9mph /  4.7km/h 6.0mph /  9.7km/h 9% 0.00in /  0mm 297.0 W/m2
16:59 90.1 °F /  32.3 °C 23.7 °F /  -4.6 °C 29.73in /  1006.7hPa SW 6.0mph /  9.7km/h 7.0mph /  11.3km/h 9% 0.00in /  0mm 285.0 W/m2
17:05 90.1 °F /  32.3 °C 23.7 °F /  -4.6 °C 29.73in /  1006.7hPa WSW 2.9mph /  4.7km/h 9.0mph /  14.5km/h 9% 0.00in /  0mm 265.0 W/m2
17:11 90.1 °F /  32.3 °C 20.8 °F /  -6.2 °C 29.74in /  1007hPa West 6.9mph /  11.1km/h 8.0mph /  12.9km/h 8% 0.00in /  0mm 237.0 W/m2
17:17 89.8 °F /  32.1 °C 23.4 °F /  -4.8 °C 29.74in /  1007hPa WSW 8.9mph /  14.3km/h 12.0mph /  19.3km/h 9% 0.00in /  0mm 213.0 W/m2
17:23 89.1 °F /  31.7 °C 25.3 °F /  -3.7 °C 29.74in /  1007hPa SW 4.0mph /  6.4km/h 8.0mph /  12.9km/h 10% 0.00in /  0mm 197.0 W/m2
17:29 88.5 °F /  31.4 °C 22.5 °F /  -5.3 °C 29.74in /  1007hPa WSW 4.0mph /  6.4km/h 7.0mph /  11.3km/h 9% 0.00in /  0mm 178.0 W/m2
17:35 88.2 °F /  31.2 °C 24.8 °F /  -4 °C 29.74in /  1007hPa West 2.9mph /  4.7km/h 9.0mph /  14.5km/h 10% 0.00in /  0mm 158.0 W/m2
17:41 87.8 °F /  31 °C 24.4 °F /  -4.2 °C 29.74in /  1007hPa WSW 4.0mph /  6.4km/h 8.0mph /  12.9km/h 10% 0.00in /  0mm 130.0 W/m2
17:47 87.3 °F /  30.7 °C 24.1 °F /  -4.4 °C 29.75in /  1007.3hPa West 6.9mph /  11.1km/h 8.0mph /  12.9km/h 10% 0.00in /  0mm 113.0 W/m2
17:53 87.1 °F /  30.6 °C 26.2 °F /  -3.2 °C 29.75in /  1007.3hPa WSW 11.0mph /  17.7km/h 12.0mph /  19.3km/h 11% 0.00in /  0mm 95.0 W/m2
17:59 86.4 °F /  30.2 °C 23.4 °F /  -4.8 °C 29.75in /  1007.3hPa WSW 2.0mph /  3.2km/h 11.0mph /  17.7km/h 10% 0.00in /  0mm 81.0 W/m2
18:05 86.0 °F /  30 °C 23.2 °F /  -4.9 °C 29.75in /  1007.3hPa SW 6.0mph /  9.7km/h 12.0mph /  19.3km/h 10% 0.00in /  0mm 49.0 W/m2
18:11 85.6 °F /  29.8 °C 22.8 °F /  -5.1 °C 29.75in /  1007.3hPa SW 2.9mph /  4.7km/h 6.0mph /  9.7km/h 10% 0.00in /  0mm 39.0 W/m2
18:17 85.3 °F /  29.6 °C 22.6 °F /  -5.2 °C 29.75in /  1007.3hPa SW 0.9mph /  1.4km/h 3.0mph /  4.8km/h 10% 0.00in /  0mm 26.0 W/m2
18:24 84.6 °F /  29.2 °C 19.6 °F /  -6.9 °C 29.76in /  1007.7hPa SW 6.0mph /  9.7km/h 6.0mph /  9.7km/h 9% 0.00in /  0mm 21.0 W/m2
18:30 84.2 °F /  29 °C 19.2 °F /  -7.1 °C 29.76in /  1007.7hPa SSE 2.9mph /  4.7km/h 7.0mph /  11.3km/h 9% 0.00in /  0mm 14.0 W/m2
18:36 83.7 °F /  28.7 °C 18.9 °F /  -7.3 °C 29.76in /  1007.7hPa Calm   8.0mph /  12.9km/h 9% 0.00in /  0mm 9.0 W/m2
18:42 83.3 °F /  28.5 °C 18.5 °F /  -7.5 °C 29.77in /  1008hPa SW 2.0mph /  3.2km/h 4.0mph /  6.4km/h 9% 0.00in /  0mm 5.0 W/m2
18:48 82.8 °F /  28.2 °C 15.4 °F /  -9.2 °C 29.77in /  1008hPa WSW 2.9mph /  4.7km/h 6.0mph /  9.7km/h 8% 0.00in /  0mm 0.0 W/m2
18:54 82.4 °F /  28 °C 15.3 °F /  -9.3 °C 29.77in /  1008hPa WSW 2.9mph /  4.7km/h 9.0mph /  14.5km/h 8% 0.00in /  0mm 0.0 W/m2
19:00 82.0 °F /  27.8 °C 14.9 °F /  -9.5 °C 29.78in /  1008.4hPa SW 2.0mph /  3.2km/h 4.0mph /  6.4km/h 8% 0.00in /  0mm 0.0 W/m2
19:07 81.7 °F /  27.6 °C 11.7 °F /  -11.3 °C 29.78in /  1008.4hPa Calm   5.0mph /  8km/h 7% 0.00in /  0mm 0.0 W/m2
19:13 81.1 °F /  27.3 °C 11.3 °F /  -11.5 °C 29.78in /  1008.4hPa SSW 4.0mph /  6.4km/h 5.0mph /  8km/h 7% 0.00in /  0mm 0.0 W/m2
19:19 80.8 °F /  27.1 °C 10.9 °F /  -11.7 °C 29.79in /  1008.7hPa Calm   2.0mph /  3.2km/h 7% 0.00in /  0mm 0.0 W/m2
19:25 80.4 °F /  26.9 °C 10.8 °F /  -11.8 °C 29.79in /  1008.7hPa SSW 2.0mph /  3.2km/h 3.0mph /  4.8km/h 7% 0.00in /  0mm 0.0 W/m2
19:31 80.1 °F /  26.7 °C 10.4 °F /  -12 °C 29.79in /  1008.7hPa Calm   1.0mph /  1.6km/h 7% 0.00in /  0mm 0.0 W/m2
19:37 79.5 °F /  26.4 °C 10.0 °F /  -12.2 °C 29.80in /  1009hPa Calm   1.0mph /  1.6km/h 7% 0.00in /  0mm 0.0 W/m2
19:43 79.0 °F /  26.1 °C 9.7 °F /  -12.4 °C 29.80in /  1009hPa Calm   2.0mph /  3.2km/h 7% 0.00in /  0mm 0.0 W/m2
19:49 78.4 °F /  25.8 °C 9.3 °F /  -12.6 °C 29.80in /  1009hPa Calm   3.0mph /  4.8km/h 7% 0.00in /  0mm 0.0 W/m2
19:55 78.1 °F /  25.6 °C 9.0 °F /  -12.8 °C 29.80in /  1009hPa SSW 0.9mph /  1.4km/h 1.0mph /  1.6km/h 7% 0.00in /  0mm 0.0 W/m2
20:01 77.5 °F /  25.3 °C 8.6 °F /  -13 °C 29.81in /  1009.4hPa South 0.9mph /  1.4km/h 3.0mph /  4.8km/h 7% 0.00in /  0mm 0.0 W/m2
20:07 77.4 °F /  25.2 °C 11.5 °F /  -11.4 °C 29.81in /  1009.4hPa Calm   2.0mph /  3.2km/h 8% 0.00in /  0mm 0.0 W/m2
20:14 77.0 °F /  25 °C 11.1 °F /  -11.6 °C 29.81in /  1009.4hPa Calm   4.0mph /  6.4km/h 8% 0.00in /  0mm 0.0 W/m2
20:20 76.8 °F /  24.9 °C 8.1 °F /  -13.3 °C 29.82in /  1009.7hPa South 4.0mph /  6.4km/h 4.0mph /  6.4km/h 7% 0.00in /  0mm 0.0 W/m2
20:26 76.8 °F /  24.9 °C 8.1 °F /  -13.3 °C 29.82in /  1009.7hPa Calm   3.0mph /  4.8km/h 7% 0.00in /  0mm 0.0 W/m2
20:32 76.8 °F /  24.9 °C 8.1 °F /  -13.3 °C 29.82in /  1009.7hPa Calm     7% 0.00in /  0mm 0.0 W/m2
20:38 76.6 °F /  24.8 °C 10.9 °F /  -11.7 °C 29.83in /  1010hPa Calm     8% 0.00in /  0mm 0.0 W/m2
20:44 76.3 °F /  24.6 °C 10.6 °F /  -11.9 °C 29.83in /  1010hPa Calm     8% 0.00in /  0mm 0.0 W/m2
20:50 75.7 °F /  24.3 °C 10.2 °F /  -12.1 °C 29.83in /  1010hPa Calm     8% 0.00in /  0mm 0.0 W/m2
20:56 75.4 °F /  24.1 °C 10.0 °F /  -12.2 °C 29.83in /  1010hPa Calm     8% 0.00in /  0mm 0.0 W/m2
21:03 75.0 °F /  23.9 °C 9.7 °F /  -12.4 °C 29.83in /  1010hPa Calm   1.0mph /  1.6km/h 8% 0.00in /  0mm 0.0 W/m2
21:09 74.7 °F /  23.7 °C 9.5 °F /  -12.5 °C 29.84in /  1010.4hPa Calm     8% 0.00in /  0mm 0.0 W/m2
21:15 74.1 °F /  23.4 °C 11.7 °F /  -11.3 °C 29.84in /  1010.4hPa Calm     9% 0.00in /  0mm 0.0 W/m2
21:21 73.8 °F /  23.2 °C 13.8 °F /  -10.1 °C 29.84in /  1010.4hPa Calm     10% 0.00in /  0mm 0.0 W/m2
21:27 73.0 °F /  22.8 °C 13.3 °F /  -10.4 °C 29.85in /  1010.7hPa Calm     10% 0.00in /  0mm 0.0 W/m2
21:33 72.3 °F /  22.4 °C 14.9 °F /  -9.5 °C 29.85in /  1010.7hPa Calm     11% 0.00in /  0mm 0.0 W/m2
21:39 72.0 °F /  22.2 °C 14.5 °F /  -9.7 °C 29.85in /  1010.7hPa Calm     11% 0.00in /  0mm 0.0 W/m2
21:45 71.2 °F /  21.8 °C 14.0 °F /  -10 °C 29.85in /  1010.7hPa Calm     11% 0.00in /  0mm 0.0 W/m2
21:51 70.7 °F /  21.5 °C 13.6 °F /  -10.2 °C 29.85in /  1010.7hPa Calm   1.0mph /  1.6km/h 11% 0.00in /  0mm 0.0 W/m2
21:57 70.3 °F /  21.3 °C 13.3 °F /  -10.4 °C 29.85in /  1010.7hPa Calm     11% 0.00in /  0mm 0.0 W/m2
22:03 70.0 °F /  21.1 °C 13.1 °F /  -10.5 °C 29.85in /  1010.7hPa Calm     11% 0.00in /  0mm 0.0 W/m2
22:09 70.0 °F /  21.1 °C 10.9 °F /  -11.7 °C 29.85in /  1010.7hPa SE 0.9mph /  1.4km/h 2.0mph /  3.2km/h 10% 0.00in /  0mm 0.0 W/m2
22:15 70.0 °F /  21.1 °C 10.9 °F /  -11.7 °C 29.85in /  1010.7hPa Calm   1.0mph /  1.6km/h 10% 0.00in /  0mm 0.0 W/m2
22:22 69.8 °F /  21 °C 10.8 °F /  -11.8 °C 29.85in /  1010.7hPa Calm   1.0mph /  1.6km/h 10% 0.00in /  0mm 0.0 W/m2
22:28 69.6 °F /  20.9 °C 12.7 °F /  -10.7 °C 29.85in /  1010.7hPa Calm     11% 0.00in /  0mm 0.0 W/m2
22:34 69.4 °F /  20.8 °C 12.6 °F /  -10.8 °C 29.85in /  1010.7hPa Calm     11% 0.00in /  0mm 0.0 W/m2
22:40 69.3 °F /  20.7 °C 12.6 °F /  -10.8 °C 29.85in /  1010.7hPa Calm     11% 0.00in /  0mm 0.0 W/m2
22:46 69.1 °F /  20.6 °C 12.4 °F /  -10.9 °C 29.85in /  1010.7hPa Calm     11% 0.00in /  0mm 0.0 W/m2
22:52 68.5 °F /  20.3 °C 11.8 °F /  -11.2 °C 29.85in /  1010.7hPa Calm     11% 0.00in /  0mm 0.0 W/m2
22:58 68.4 °F /  20.2 °C 13.8 °F /  -10.1 °C 29.85in /  1010.7hPa Calm     12% 0.00in /  0mm 0.0 W/m2
23:04 67.8 °F /  19.9 °C 13.3 °F /  -10.4 °C 29.85in /  1010.7hPa Calm     12% 0.00in /  0mm 0.0 W/m2
23:11 67.5 °F /  19.7 °C 11.1 °F /  -11.6 °C 29.85in /  1010.7hPa Calm     11% 0.00in /  0mm 0.0 W/m2
23:17 66.9 °F /  19.4 °C 10.8 °F /  -11.8 °C 29.85in /  1010.7hPa Calm     11% 0.00in /  0mm 0.0 W/m2
23:23 66.7 °F /  19.3 °C 10.6 °F /  -11.9 °C 29.85in /  1010.7hPa Calm     11% 0.00in /  0mm 0.0 W/m2
23:29 66.4 °F /  19.1 °C 10.2 °F /  -12.1 °C 29.85in /  1010.7hPa Calm     11% 0.00in /  0mm 0.0 W/m2
23:35 66.2 °F /  19 °C 15.6 °F /  -9.1 °C 29.85in /  1010.7hPa Calm     14% 0.00in /  0mm 0.0 W/m2
23:41 65.8 °F /  18.8 °C 16.9 °F /  -8.4 °C 29.85in /  1010.7hPa Calm     15% 0.00in /  0mm 0.0 W/m2
23:47 65.7 °F /  18.7 °C 15.1 °F /  -9.4 °C 29.85in /  1010.7hPa Calm     14% 0.00in /  0mm 0.0 W/m2
23:54 65.3 °F /  18.5 °C 14.9 °F /  -9.5 °C 29.85in /  1010.7hPa Calm     14% 0.00in /  0mm 0.0 W/m2
Olympia, Windhoek, Namibia
Compliments of Weather Underground - 3 mb